首页
METAR-TAF:

METAR-TAF

机场 :

戛纳, 法国

纬度: 43-33N, 经度: 006-57E, 海拔: 3米

当前天气观测

该预报发布于34分钟前的04:30 UTC
静风
温度 8°C
湿度 100%
气压 1007 hPa
能见度10公里或以上

METAR: LFMD 190430Z AUTO 00000KT 9999 RA OVC047/// ///CB 08/08 Q1007 TEMPO 02015G25KT -TSRA OVC040

时间: 06:04 (05:04 UTC)

预报

该预报发布于3小时和4分钟前的02:00 UTC
预报有效从19日的 03点(UTC)到 20日的 03点(UTC)
风速10节,风向北转东北
能见度10公里或以上
阴天层高于7000英尺
短暂存在
从 19日的 03点(UTC)到 19日的 16点(UTC)
风速15节,风向北转东北,有时为25节阵风
阴天层高于4000英尺
几率 30% :
短暂存在
从 19日的 03点(UTC)到 19日的 06点(UTC)
散云层高于2500英尺, 积雨云.
雷暴, 小雨
成为
从 19日的 11点(UTC)到 19日的 13点(UTC)
风速5节,风向西
成为
从 19日的 16点(UTC)到 19日的 18点(UTC)
风速10节,风向
能见度10公里或以上
多云层高于6000英尺

TAF: LFMD 190200Z 1903/2003 03010KT 9999 OVC070 TEMPO 1903/1916 02015G25KT RA OVC040 PROB30 TEMPO 1903/1906 -TSRA SCT025CB BECMG 1911/1913 27005KT BECMG 1916/1918 35010KT 9999 BKN060

超过4000个机场的气象观测和天气预报(METAR&TAF报告)。

可查询的气象台以黄色和红色小点在地图上表示。

将鼠标移到小点上方,可查看气象台名称。

然后点击查看天气观测和预报。

如需切换地图:点击带黑十字的绿色按钮放大地图;点击带横线的绿色按钮缩小地图;或者点击绿色箭头查看邻近地区的地图。


METAR-TAF: